ADDS METAR Data INFO
IDs: Format: Raw Decoded Include TAF

Data at: 2344 UTC 24 Feb 2018

K82V 242335Z AUTO 10SM CLR M03/M14 A2977 RMK AO2
K82V 242315Z AUTO 10SM CLR M02/M13 A2977 RMK AO2
K82V 242255Z AUTO 10SM CLR M02/M13 A2977 RMK AO2
K82V 242235Z AUTO 10SM CLR M02/M13 A2976 RMK AO2
K82V 242215Z AUTO 10SM CLR M02/M13 A2976 RMK AO2
K82V 242155Z AUTO 10SM CLR M02/M13 A2976 RMK AO2
K82V 242135Z AUTO 10SM CLR M02/M12 A2975 RMK AO2
K82V 242115Z AUTO 10SM CLR M02/M12 A2974 RMK AO2
K82V 242055Z AUTO 10SM CLR M02/M12 A2975 RMK AO2
K82V 242035Z AUTO 10SM CLR M02/M12 A2974 RMK AO2
K82V 242015Z AUTO 10SM CLR M02/M12 A2974 RMK AO2
K82V 241955Z AUTO 10SM CLR M02/M11 A2974 RMK AO2
K82V 241935Z AUTO 30030KT 7SM SCT110 M03/M11 A2974 RMK AO2
K82V 241915Z AUTO 30030KT 7SM SCT110 M03/M11 A2974 RMK AO2
K82V 241855Z AUTO 7SM CLR M03/M11 A2975 RMK AO2
K82V 241835Z AUTO 10SM CLR M03/M11 A2976 RMK AO2
K82V 241815Z AUTO 10SM CLR M03/M12 A2976 RMK AO2
K82V 241755Z AUTO 10SM CLR M03/M13 A2976 RMK AO2
K82V 241735Z AUTO 10SM CLR M03/M15 A2977 RMK AO2
K82V 241715Z AUTO 10SM CLR M05/M15 A2976 RMK AO2 PWINO
K82V 241655Z AUTO 10SM CLR M06/M15 A2977 RMK AO2 PWINO
K82V 241635Z AUTO 10SM CLR M07/M16 A2977 RMK AO2 PWINO
K82V 241615Z AUTO 10SM CLR M07/M16 A2978 RMK AO2 PWINO
K82V 241555Z AUTO 10SM CLR M07/M16 A2977 RMK AO2
K82V 241535Z AUTO 10SM CLR M08/M16 A2977 RMK AO2
K82V 241515Z AUTO 10SM CLR M10/M16 A2978 RMK AO2
K82V 241455Z AUTO 23006KT 10SM CLR M11/M16 A2978 RMK AO2
K82V 241435Z AUTO 27006KT 10SM CLR M11/M16 A2978 RMK AO2
K82V 241415Z AUTO 30008KT 10SM CLR M11/M16 A2978 RMK AO2
K82V 241355Z AUTO 27007KT 10SM CLR M12/M15 A2978 RMK AO2
K82V 241335Z AUTO 26009KT 10SM CLR M10/M13 A2978 RMK AO2
K82V 241315Z AUTO 28007KT 10SM CLR M09/M11 A2978 RMK AO2
K82V 241255Z AUTO 27007KT 10SM CLR M08/M09 A2977 RMK AO2
K82V 241235Z AUTO 27006KT 10SM CLR M07/M08 A2977 RMK AO2
K82V 241215Z AUTO 25006KT 7SM SCT005 SCT110 M07/M07 A2977 RMK AO2
K82V 241155Z AUTO 26006KT 7SM BKN005 BKN110 M06/M06 A2978 RMK AO2
K82V 241135Z AUTO 24006KT 7SM OVC003 M06/M06 A2979 RMK AO2
K82V 241115Z AUTO 22006KT 3SM BR OVC003 M05/M06 A2978 RMK AO2
K82V 241055Z AUTO 22004KT 1 1/4SM BR OVC003 M06/M06 A2979 RMK AO2
K82V 241035Z AUTO 18005KT 2SM BR OVC003 M06/M06 A2979 RMK AO2
K82V 241015Z AUTO 21004KT 2SM BR OVC003 M06/M06 A2979 RMK AO2
K82V 240955Z AUTO 22005KT 3SM BR OVC003 M06/M06 A2980 RMK AO2
K82V 240935Z AUTO 23004KT 2 1/2SM BR OVC003 M06/M06 A2981 RMK AO2
K82V 240915Z AUTO 25003KT 3SM BR OVC003 M06/M06 A2982 RMK AO2
K82V 240855Z AUTO 19005KT 3SM BR OVC003 M06/M06 A2982 RMK AO2
K82V 240835Z AUTO 18007KT 4SM BR OVC003 M06/M06 A2983 RMK AO2
K82V 240815Z AUTO 16007KT 5SM BR SCT003 OVC013 M06/M06 A2983 RMK AO2
K82V 240755Z AUTO 15007KT 10SM OVC013 M06/M06 A2985 RMK AO2
K82V 240735Z AUTO 17005KT 10SM SCT013 OVC018 M06/M06 A2986 RMK AO2
K82V 240715Z AUTO 16006KT 10SM OVC018 M06/M06 A2986 RMK AO2
K82V 240655Z AUTO 15012KT 10SM SCT006 OVC018 M06/M06 A2989 RMK AO2
K82V 240635Z AUTO 16008KT 10SM OVC018 M06/M06 A2989 RMK AO2
K82V 240615Z AUTO 15009KT 10SM BKN020 OVC028 M06/M07 A2989 RMK AO2
K82V 240555Z AUTO 14007KT 10SM SCT020 BKN028 M06/M08 A2989 RMK AO2
K82V 240535Z AUTO 13011KT 10SM SCT020 BKN026 BKN085 M06/M08 A2988 RMK AO2
K82V 240515Z AUTO 14009KT 10SM SCT095 SCT110 M07/M08 A2989 RMK AO2
K82V 240455Z AUTO 15008KT 10SM SCT070 BKN095 M06/M08 A2991 RMK AO2
K82V 240435Z AUTO 15010KT 10SM SCT014 BKN020 OVC095 M06/M08 A2993 RMK AO2
K82V 240415Z AUTO 14011KT 5SM BR SCT014 BKN022 OVC031 M06/M07 A2994 RMK AO2
K82V 240355Z AUTO 14011G17KT 10SM SCT008 BKN015 OVC022 M06/M08 A2994 RMK AO2
K82V 240335Z AUTO 13015G20KT 3SM BR BKN008 OVC013 M06/M07 A2994 RMK AO2
K82V 240315Z AUTO 14019G25KT 2SM BR BKN008 OVC016 M05/M07 A2995 RMK AO2
K82V 240255Z AUTO 13020KT 5SM BR SCT021 BKN037 OVC044 M05/M07 A2993 RMK AO2
K82V 240235Z AUTO 12015G20KT 10SM BKN045 OVC050 M05/M07 A2993 RMK AO2
K82V 240215Z AUTO 10009G16KT 10SM SCT047 BKN060 OVC070 M05/M08 A2994 RMK AO2
K82V 240155Z AUTO 07008KT 10SM SCT070 OVC090 M05/M08 A2995 RMK AO2
K82V 240135Z AUTO 09009G18KT 10SM OVC100 M05/M08 A2995 RMK AO2 PWINO
K82V 240115Z AUTO 10011G15KT 10SM OVC100 M05/M08 A2995 RMK AO2 PWINO
K82V 240055Z AUTO 09009KT 10SM OVC100 M05/M08 A2995 RMK AO2 PWINO
K82V 240035Z AUTO 07008KT 10SM SCT037 OVC110 M03/M08 A2995 RMK AO2 PWINO
K82V 240015Z AUTO 08008KT 10SM SCT037 BKN110 M03/M08 A2996 RMK AO2 PWINO
K82V 232355Z AUTO 09004KT 10SM OVC037 M03/M07 A2997 RMK AO2 PWINO
K82V 232335Z AUTO 10005KT 10SM BKN037 M02/M07 A2997 RMK AO2
K82V 232315Z AUTO 11008KT 10SM SCT035 M02/M07 A2997 RMK AO2
K82V 232255Z AUTO 10SM SCT032 M01/M07 A2997 RMK AO2
K82V 232235Z AUTO 11009KT 10SM SCT030 M01/M07 A2997 RMK AO2
K82V 232215Z AUTO 10SM SCT028 M01/M07 A2997 RMK AO2
K82V 232155Z AUTO 10SM BKN026 00/M06 A2997 RMK AO2
K82V 232135Z AUTO 10SM BKN026 M01/M07 A2997 RMK AO2
K82V 232115Z AUTO 10SM BKN026 M01/M07 A2998 RMK AO2
K82V 232055Z AUTO 10SM SCT028 M01/M08 A2999 RMK AO2
K82V 232035Z AUTO 10SM BKN026 M01/M08 A3000 RMK AO2
K82V 232015Z AUTO 10SM OVC026 M01/M08 A3001 RMK AO2 PWINO
K82V 231955Z AUTO 10SM BKN022 M01/M07 A3001 RMK AO2 PWINO
K82V 231935Z AUTO 10SM OVC022 M03/M08 A3002 RMK AO2 PWINO
K82V 231915Z AUTO 10SM OVC022 M03/M10 A3004 RMK AO2 PWINO
K82V 231855Z AUTO 10SM BKN022 M03/M10 A3005 RMK AO2 PWINO
K82V 231835Z AUTO 10SM SCT024 M05/M10 A3006 RMK AO2 PWINO
K82V 231815Z AUTO 10SM CLR M05/M10 A3007 RMK AO2 PWINO
K82V 231755Z AUTO 10SM SCT024 M07/M11 A3006 RMK AO2 PWINO
K82V 231735Z AUTO 10SM SCT024 M07/M12 A3007 RMK AO2 PWINO
K82V 231715Z AUTO 10SM CLR M07/M12 A3008 RMK AO2 PWINO
K82V 231655Z AUTO 10SM CLR M10/M14 A3008 RMK AO2
K82V 231635Z AUTO 10SM CLR M10/M15 A3008 RMK AO2 PWINO
K82V 231615Z AUTO 10SM CLR M11/M15 A3007 RMK AO2 PWINO
K82V 231555Z AUTO 10SM CLR M12/M15 A3007 RMK AO2 PWINO
K82V 231535Z AUTO 10SM CLR M13/M16 A3007 RMK AO2 PWINO
K82V 231515Z AUTO 10SM SCT085 M15/M17 A3007 RMK AO2 PWINO
K82V 231455Z AUTO 00000KT 10SM SCT085 M16/M18 A3006 RMK AO2 PWINO
K82V 231435Z AUTO 10SM SCT085 M16/M18 A3006 RMK AO2
K82V 231415Z AUTO 10SM SCT085 M16/M18 A3005 RMK AO2
K82V 231355Z AUTO 27005KT 10SM OVC095 M16/M18 A3005 RMK AO2
K82V 231335Z AUTO 00000KT 10SM BKN095 M16/M17 A3005 RMK AO2
K82V 231315Z AUTO 10SM SCT095 M14/M16 A3005 RMK AO2
K82V 231255Z AUTO 7SM CLR M14/M16 A3004 RMK AO2
K82V 231235Z AUTO 21006KT 10SM CLR M15/M16 A3004 RMK AO2
K82V 231215Z AUTO 20006KT 10SM CLR M15/M17 A3004 RMK AO2
K82V 231155Z AUTO 22003KT 10SM SCT050 M15/M16 A3003 RMK AO2